x

Destruction Island, Wa (desw1) Weather Station

10:00 - Fri 9th Dec 2016 All times are PST. -8 hours from GMT.

  • Wind
    22mph, 29mph gusts
  • Ar Temp 43°f
  • Sea Pressure 1012.4mb
  • Destruction Island, Wa
  • Destruction Island, Wa

More Historic Weather Station data

Upgrade to MSW Pro to gain access to the past 30 days of data for over 8000 Wavebouys and Weather Stations around the globe.

Join Pro

Comparision Forecast

View Surf forecast
   
Sex 12/09 10:00 22 29 mph 1012.4mb 43f
9:00 22 24 mph 1012.4mb 42f
8:00 21 23 mph 1011.9mb 43f
7:00 21 23 mph 1012.7mb 42f
6:00 23 26 mph 1011.9mb 42f
5:00 26 28 mph 1011.5mb 41f
4:00 25 29 mph 1011.2mb 42f
3:00 30 32 mph 1010.7mb 42f
2:00 31 34 mph 1010.1mb 42f
1:00 36 39 mph 1009.5mb 41f
12:00 22 26 mph 1009.6mb 38f
Qui 12/08 11:00 6 7 mph 1009.8mb 34f
10:00 10 11 mph 1009.3mb 34f
9:00 7 8 mph 1009.3mb 33f
8:00 11 13 mph 1009mb 35f
7:00 2 3 mph 1008.9mb 36f
6:00 3 5 mph 1008.9mb 39f
5:00 8 9 mph 1008.8mb 38f
4:00 10 13 mph 1009mb 39f
3:00 9 10 mph 1009.8mb 39f
2:00  -  mph 1010.4mb 40f
1:00 7 8 mph 1010.4mb 39f
12:00 7 10 mph 1011.4mb 37f
11:00 14 15 mph 1012.4mb 35f
10:00 11 13 mph 1013.7mb 34f
9:00 16 18 mph 1013.9mb 32f
8:00 13 15 mph 1014.6mb 32f
7:00 13 15 mph 1015.5mb 32f
6:00 11 14 mph 1015.9mb 32f
5:00 13 16 mph 1016.7mb 32f
4:00 16 18 mph 1017.7mb 33f
3:00 13 15 mph 1019mb 32f
2:00 9 10 mph 1020.1mb 34f
1:00 11 14 mph 1020.5mb 33f
12:00 14 15 mph 1021.2mb 33f
Qua 12/07 11:00 9 11 mph 1021.9mb 33f
10:00 13 14 mph 1022.3mb 33f
9:00 14 16 mph 1022.8mb 33f
8:00 11 14 mph 1023.5mb 33f
7:00 14 16 mph 1024.1mb 34f
6:00 14 15 mph 1024.8mb 35f
5:00 11 14 mph 1025.6mb 36f
4:00 7 8 mph 1026.1mb 38f
3:00  -  2 mph 1026.6mb 39f
2:00  -  2 mph 1027mb 39f
1:00 2 3 mph 1027.6mb 37f
12:00  -  2 mph 1028.4mb 37f
11:00 1 3 mph 1029.1mb 36f
10:00 8 9 mph 1028.9mb 35f
9:00 11 14 mph 1028.8mb 33f
8:00 11 13 mph 1028.7mb 33f
7:00 15 17 mph 1028.5mb 33f
6:00 17 20 mph 1028.7mb 33f
5:00 15 17 mph 1028.8mb 34f
4:00 13 14 mph 1028.8mb 34f
3:00 13 14 mph 1028.8mb 35f
2:00 13 14 mph 1028.6mb 35f
1:00 11 14 mph 1028.1mb 35f
12:00 6 8 mph 1027.7mb 37f
Ter 12/06 11:00 7 8 mph 1027.1mb 37f
10:00 7 8 mph 1026.8mb 37f
9:00 7 9 mph 1026.2mb 38f
8:00 9 11 mph 1025.4mb 38f
7:00 7 8 mph 1025.1mb 37f
6:00 8 10 mph 1024.7mb 37f
4:00 9 11 mph 1024.1mb 40f
3:00 6 7 mph 1023.5mb 40f
2:00 3 5 mph 1022.8mb 40f
1:00 6 8 mph 1022.5mb 39f
12:00 9 11 mph 1022.1mb 39f
11:00 8 9 mph 1022mb 38f
10:00 7 8 mph 1021.3mb 38f
9:00 9 11 mph 1020.7mb 35f
8:00 10 11 mph 1019.8mb 35f
7:00 8 9 mph 1018.8mb 35f
6:00 11 13 mph 1018.2mb 35f
5:00 9 10 mph 1017.8mb 35f
4:00 8 9 mph 1017.4mb 35f
3:00 6 7 mph 1017.2mb 36f
2:00 5 6 mph 1016.8mb 37f
1:00 5 6 mph 1016.7mb 37f
12:00 6 7 mph 1016.6mb 37f
Seg 12/05 11:00 8 9 mph 1016.4mb 37f
10:00 5 7 mph 1016.3mb 38f
9:00 6 8 mph 1016mb 38f
8:00 8 10 mph 1015.9mb 38f